createdAt,value
2023-05-19T00:02:56.461Z,87.14
2023-05-19T00:05:46.482Z,87.25
2023-05-19T00:08:38.193Z,87.07
2023-05-19T00:11:28.720Z,86.91
2023-05-19T00:14:17.229Z,86.61
2023-05-19T00:17:06.179Z,86.54
2023-05-19T00:19:55.074Z,86.62
2023-05-19T00:22:45.181Z,86.55
2023-05-19T00:25:33.594Z,86.82
2023-05-19T00:28:21.861Z,86.69
2023-05-19T00:31:10.257Z,86.54
2023-05-19T00:33:58.376Z,86.84
2023-05-19T00:36:46.860Z,87.08
2023-05-19T00:39:35.329Z,87.47
2023-05-19T00:42:23.642Z,87.92
2023-05-19T00:45:11.958Z,88.36
2023-05-19T00:48:01.734Z,88.32
2023-05-19T00:50:52.537Z,88.05
2023-05-19T00:53:41.296Z,88.00
2023-05-19T00:56:29.749Z,87.89
2023-05-19T00:59:18.079Z,87.78
2023-05-19T01:02:07.105Z,87.72
2023-05-19T01:04:57.538Z,87.86
2023-05-19T01:07:47.421Z,88.31
2023-05-19T01:10:36.406Z,88.56
2023-05-19T01:13:25.746Z,88.75
2023-05-19T01:16:42.990Z,89.12
2023-05-19T01:19:56.513Z,89.18
2023-05-19T01:22:57.314Z,89.68
2023-05-19T01:26:35.086Z,89.85
2023-05-19T01:30:10.962Z,89.98
2023-05-19T01:33:07.695Z,90.45
2023-05-19T01:35:57.749Z,90.43
2023-05-19T01:38:47.926Z,90.78
2023-05-19T01:41:37.239Z,90.77
2023-05-19T01:44:26.932Z,90.78
2023-05-19T01:47:15.831Z,91.27
2023-05-19T01:50:05.154Z,91.42
2023-05-19T01:52:54.027Z,91.17
2023-05-19T01:55:52.048Z,91.49
2023-05-19T01:58:53.240Z,91.49
2023-05-19T02:01:53.463Z,91.45
2023-05-19T02:05:00.665Z,91.35
2023-05-19T02:08:02.597Z,91.03
2023-05-19T02:11:08.445Z,91.43
2023-05-19T02:14:00.112Z,91.21
2023-05-19T02:16:49.557Z,91.13
2023-05-19T02:19:42.618Z,91.27
2023-05-19T02:22:31.614Z,91.31
2023-05-19T02:25:19.950Z,91.11
2023-05-19T02:28:08.686Z,91.28
2023-05-19T02:30:56.833Z,91.33
2023-05-19T02:33:45.960Z,91.06
2023-05-19T02:36:39.142Z,91.31
2023-05-19T02:39:30.407Z,91.51
2023-05-19T02:42:18.605Z,91.40
2023-05-19T02:45:07.370Z,91.41
2023-05-19T02:47:56.989Z,91.58
2023-05-19T02:50:47.136Z,91.66
2023-05-19T02:53:38.581Z,91.85
2023-05-19T02:56:26.635Z,91.72
2023-05-19T02:59:14.762Z,91.84
2023-05-19T03:02:05.656Z,91.83
2023-05-19T03:04:53.822Z,91.52
2023-05-19T03:07:42.341Z,92.12
2023-05-19T03:10:31.167Z,92.33
2023-05-19T03:13:19.453Z,92.36
2023-05-19T03:16:08.665Z,92.42
2023-05-19T03:18:57.715Z,92.24
2023-05-19T03:21:46.559Z,92.57
2023-05-19T03:24:34.826Z,92.16
2023-05-19T03:27:24.649Z,91.97
2023-05-19T03:30:14.131Z,91.73
2023-05-19T03:33:16.499Z,91.25
2023-05-19T03:36:06.901Z,91.09
2023-05-19T03:38:59.042Z,91.20
2023-05-19T03:41:47.629Z,91.05
2023-05-19T03:44:35.851Z,91.00
2023-05-19T03:47:24.548Z,91.02
2023-05-19T03:50:34.144Z,90.51
2023-05-19T03:53:33.704Z,90.23
2023-05-19T03:56:25.161Z,89.65
2023-05-19T03:59:13.211Z,89.56
2023-05-19T04:02:01.319Z,89.50
2023-05-19T04:04:51.405Z,89.11
2023-05-19T04:07:40.305Z,88.81
2023-05-19T04:10:28.863Z,88.35
2023-05-19T04:13:18.409Z,88.17
2023-05-19T04:16:07.601Z,87.51
2023-05-19T04:18:57.083Z,86.76
2023-05-19T04:21:46.336Z,86.08
2023-05-19T04:24:35.058Z,85.13
2023-05-19T04:27:23.770Z,84.91
2023-05-19T04:30:12.722Z,83.88
2023-05-19T04:33:05.018Z,83.17
2023-05-19T04:35:53.866Z,82.59
2023-05-19T04:38:42.100Z,82.07
2023-05-19T04:41:31.843Z,81.42
2023-05-19T04:44:20.667Z,80.63
2023-05-19T04:47:11.580Z,79.55
2023-05-19T04:50:04.115Z,78.75
2023-05-19T04:52:53.353Z,77.58
2023-05-19T04:55:41.642Z,76.63
2023-05-19T04:58:31.104Z,75.36
2023-05-19T05:01:28.288Z,74.11
2023-05-19T05:04:17.118Z,74.00
2023-05-19T05:07:06.450Z,73.28
2023-05-19T05:09:58.633Z,72.37
2023-05-19T05:12:50.288Z,71.57
2023-05-19T05:15:39.828Z,70.48
2023-05-19T05:18:34.574Z,68.88
2023-05-19T05:21:23.997Z,68.06
2023-05-19T05:24:13.462Z,65.54
2023-05-19T05:27:02.172Z,64.51
2023-05-19T05:29:53.111Z,62.48
2023-05-19T05:32:42.872Z,60.37
2023-05-19T05:35:38.953Z,58.95
2023-05-19T05:38:28.178Z,58.10
2023-05-19T05:41:18.709Z,55.83
2023-05-19T05:44:07.818Z,54.35
2023-05-19T05:46:56.992Z,51.86
2023-05-19T05:49:48.832Z,49.94
2023-05-19T05:52:41.291Z,50.17
2023-05-19T05:55:32.004Z,49.65
2023-05-19T05:58:51.344Z,48.47
2023-05-19T06:01:44.044Z,45.46
2023-05-19T06:04:33.107Z,43.88
2023-05-19T06:07:25.220Z,42.40
2023-05-19T06:10:14.450Z,40.82
2023-05-19T06:13:29.625Z,40.88
2023-05-19T06:16:21.268Z,39.17
2023-05-19T06:19:10.161Z,39.53
2023-05-19T06:22:11.000Z,39.16
2023-05-19T06:25:09.094Z,38.97
2023-05-19T06:27:58.178Z,37.97
2023-05-19T06:30:47.380Z,38.15
2023-05-19T06:33:58.978Z,37.75
2023-05-19T06:36:47.560Z,37.58
2023-05-19T06:39:43.005Z,37.05
2023-05-19T06:42:33.075Z,35.35
2023-05-19T06:45:34.701Z,34.16
2023-05-19T06:48:27.035Z,33.29
2023-05-19T06:51:21.887Z,32.92
2023-05-19T06:54:16.481Z,32.43
2023-05-19T06:57:17.297Z,31.60
2023-05-19T07:00:19.804Z,30.99
2023-05-19T07:03:21.113Z,28.67
2023-05-19T07:06:16.284Z,28.38
2023-05-19T07:09:09.055Z,27.51
2023-05-19T07:12:01.604Z,26.51
2023-05-19T07:15:09.872Z,25.57
2023-05-19T07:18:06.616Z,24.77
2023-05-19T07:21:00.449Z,25.04
2023-05-19T07:23:58.230Z,24.98
2023-05-19T07:26:52.079Z,25.02
2023-05-19T07:29:46.469Z,25.21
2023-05-19T07:32:40.952Z,24.76
2023-05-19T07:35:40.050Z,24.73
2023-05-19T07:38:36.224Z,24.42
2023-05-19T07:41:27.663Z,24.66
2023-05-19T07:44:18.825Z,25.09
2023-05-19T07:47:08.813Z,25.82
2023-05-19T07:50:08.082Z,25.36
2023-05-19T07:53:01.251Z,25.08
2023-05-19T07:55:58.724Z,24.84
2023-05-19T07:58:57.654Z,25.28
2023-05-19T08:01:52.359Z,26.24
2023-05-19T08:04:49.148Z,25.86
2023-05-19T08:07:53.411Z,26.32
2023-05-19T08:10:47.763Z,27.00
2023-05-19T08:13:49.878Z,27.12
2023-05-19T08:16:50.994Z,27.02
2023-05-19T08:19:39.763Z,27.47
2023-05-19T08:22:29.926Z,27.39
2023-05-19T08:25:21.356Z,27.06
2023-05-19T08:28:11.976Z,27.35
2023-05-19T08:31:10.349Z,27.88
2023-05-19T08:34:04.519Z,29.04
2023-05-19T08:36:57.996Z,29.43
2023-05-19T08:39:49.069Z,30.85
2023-05-19T08:42:38.689Z,32.11
2023-05-19T08:45:39.316Z,32.45
2023-05-19T08:48:31.564Z,33.08
2023-05-19T08:52:21.368Z,34.26
2023-05-19T08:55:17.172Z,35.38
2023-05-19T08:58:08.680Z,36.45
2023-05-19T09:00:59.710Z,37.36
2023-05-19T09:03:50.196Z,37.72
2023-05-19T09:06:45.152Z,38.66
2023-05-19T09:09:33.334Z,39.29
2023-05-19T09:12:21.851Z,39.07
2023-05-19T09:15:11.107Z,39.56
2023-05-19T09:18:14.139Z,40.22
2023-05-19T09:21:03.431Z,40.55
2023-05-19T09:23:51.807Z,40.70
2023-05-19T09:26:43.164Z,40.75
2023-05-19T09:29:31.642Z,40.43
2023-05-19T09:32:29.921Z,39.75
2023-05-19T09:35:20.858Z,40.32
2023-05-19T09:38:12.011Z,40.80
2023-05-19T09:41:01.926Z,41.25
2023-05-19T09:43:56.587Z,41.47
2023-05-19T09:46:51.247Z,40.93
2023-05-19T09:49:47.785Z,41.61
2023-05-19T09:52:39.205Z,41.91
2023-05-19T09:55:29.400Z,42.12
2023-05-19T09:58:21.759Z,42.65
2023-05-19T10:01:10.334Z,42.97
2023-05-19T10:03:58.375Z,43.12
2023-05-19T10:06:46.619Z,43.02
2023-05-19T10:09:37.618Z,43.38
2023-05-19T10:12:27.691Z,44.20
2023-05-19T10:15:22.229Z,44.61
2023-05-19T10:18:16.055Z,44.69
2023-05-19T10:21:06.477Z,44.86
2023-05-19T10:23:59.201Z,45.08
2023-05-19T10:27:03.621Z,45.34
2023-05-19T10:29:52.424Z,46.04
2023-05-19T10:32:44.897Z,46.89
2023-05-19T10:36:02.845Z,47.09
2023-05-19T10:39:05.647Z,47.13
2023-05-19T10:42:31.070Z,47.37
2023-05-19T10:45:24.404Z,47.92
2023-05-19T10:48:19.622Z,48.26
2023-05-19T10:51:12.362Z,48.64
2023-05-19T10:54:11.442Z,48.94
2023-05-19T10:57:01.093Z,48.95
2023-05-19T10:59:50.239Z,49.08
2023-05-19T11:02:46.359Z,48.72
2023-05-19T11:05:37.114Z,48.76
2023-05-19T11:08:36.579Z,48.68
2023-05-19T11:11:25.135Z,47.91
2023-05-19T11:14:17.265Z,47.63
2023-05-19T11:17:14.536Z,48.16
2023-05-19T11:20:05.074Z,49.06
2023-05-19T11:23:08.874Z,49.62
2023-05-19T11:25:57.950Z,50.51
2023-05-19T11:28:48.345Z,50.37
2023-05-19T11:31:37.570Z,50.85
2023-05-19T11:34:27.368Z,51.21
2023-05-19T11:37:17.254Z,51.39
2023-05-19T11:40:07.784Z,52.38
2023-05-19T11:42:56.217Z,52.07
2023-05-19T11:45:46.021Z,52.33
2023-05-19T11:48:34.215Z,52.31
2023-05-19T11:51:23.426Z,52.09
2023-05-19T11:54:12.969Z,52.10
2023-05-19T11:57:03.120Z,52.04
2023-05-19T11:59:53.560Z,51.79
2023-05-19T12:02:42.252Z,51.78
2023-05-19T12:05:34.504Z,51.07
2023-05-19T12:08:25.622Z,50.30
2023-05-19T12:11:15.031Z,49.07
2023-05-19T12:14:03.648Z,48.44
2023-05-19T12:16:52.253Z,48.15
2023-05-19T12:19:50.398Z,49.08
2023-05-19T12:22:38.567Z,49.19
2023-05-19T12:25:28.171Z,49.49
2023-05-19T12:28:17.247Z,49.38
2023-05-19T12:31:06.919Z,49.97
2023-05-19T12:33:56.159Z,49.82
2023-05-19T12:36:46.728Z,49.40
2023-05-19T12:39:36.464Z,49.21
2023-05-19T12:42:31.422Z,49.94
2023-05-19T12:45:28.693Z,49.60
2023-05-19T12:48:17.436Z,48.20
2023-05-19T12:51:06.129Z,47.33
2023-05-19T12:53:54.891Z,46.91
2023-05-19T12:56:51.358Z,47.05
2023-05-19T12:59:42.868Z,47.08
2023-05-19T13:02:34.561Z,46.32
2023-05-19T13:05:23.474Z,46.85
2023-05-19T13:08:16.309Z,47.97
2023-05-19T13:11:05.133Z,47.97
2023-05-19T13:13:53.719Z,48.19
2023-05-19T13:16:42.882Z,48.05
2023-05-19T13:19:30.790Z,48.81
2023-05-19T13:22:19.516Z,49.63
2023-05-19T13:25:09.321Z,49.10
2023-05-19T13:27:59.556Z,49.67
2023-05-19T13:30:49.944Z,49.88
2023-05-19T13:33:37.913Z,48.58
2023-05-19T13:36:30.575Z,49.18
2023-05-19T13:39:19.712Z,50.28
2023-05-19T13:42:09.159Z,49.82
2023-05-19T13:44:58.161Z,48.73
2023-05-19T13:47:46.629Z,49.27
2023-05-19T13:50:34.759Z,50.01
2023-05-19T13:53:23.160Z,50.54
2023-05-19T13:56:14.536Z,50.53
2023-05-19T13:59:04.277Z,51.35
2023-05-19T14:01:52.653Z,51.38
2023-05-19T14:04:42.018Z,51.37
2023-05-19T14:07:30.875Z,51.48
2023-05-19T14:10:23.264Z,51.59
2023-05-19T14:13:31.477Z,50.79
2023-05-19T14:16:23.199Z,50.38
2023-05-19T14:19:11.942Z,51.02
2023-05-19T14:22:00.450Z,52.20
2023-05-19T14:24:48.760Z,51.16
2023-05-19T14:27:41.043Z,51.64
2023-05-19T14:30:29.405Z,52.89
2023-05-19T14:33:22.073Z,53.75
2023-05-19T14:36:10.783Z,54.40
2023-05-19T14:38:58.997Z,55.66
2023-05-19T14:41:49.497Z,55.38
2023-05-19T14:44:40.412Z,55.37
2023-05-19T14:47:58.479Z,55.81
2023-05-19T14:50:50.413Z,55.66
2023-05-19T14:53:39.479Z,56.17
2023-05-19T14:56:32.165Z,57.18
2023-05-19T14:59:22.968Z,58.18
2023-05-19T15:02:14.271Z,59.14
2023-05-19T15:05:04.014Z,59.64
2023-05-19T15:07:57.438Z,59.19
2023-05-19T15:10:50.097Z,59.27
2023-05-19T15:13:39.346Z,59.22
2023-05-19T15:16:28.355Z,59.38
2023-05-19T15:19:17.372Z,60.13
2023-05-19T15:22:07.364Z,60.81
2023-05-19T15:24:57.499Z,61.71
2023-05-19T15:27:49.340Z,61.76
2023-05-19T15:30:40.010Z,62.88
2023-05-19T15:33:32.574Z,64.06
2023-05-19T15:36:24.865Z,65.49
2023-05-19T15:39:13.930Z,66.76
2023-05-19T15:42:03.548Z,68.36
2023-05-19T15:44:52.539Z,68.65
2023-05-19T15:47:40.642Z,70.05
2023-05-19T15:50:30.137Z,70.53
2023-05-19T15:53:20.459Z,71.64
2023-05-19T15:56:08.725Z,71.70
2023-05-19T15:58:57.988Z,71.27
2023-05-19T16:01:46.860Z,70.46
2023-05-19T16:04:35.220Z,70.58
2023-05-19T16:07:23.964Z,70.33
2023-05-19T16:10:12.717Z,70.75
2023-05-19T16:13:00.965Z,70.26
2023-05-19T16:15:49.504Z,70.64
2023-05-19T16:18:37.884Z,71.56
2023-05-19T16:21:26.120Z,72.18
2023-05-19T16:24:14.517Z,73.39
2023-05-19T16:27:05.221Z,73.54
2023-05-19T16:29:53.625Z,73.70
2023-05-19T16:32:41.660Z,72.88
2023-05-19T16:35:29.948Z,73.70
2023-05-19T16:38:18.335Z,74.68
2023-05-19T16:41:12.282Z,74.19
2023-05-19T16:44:02.488Z,74.35
2023-05-19T16:46:51.047Z,75.00
2023-05-19T16:49:42.540Z,75.02
2023-05-19T16:52:30.649Z,74.75
2023-05-19T16:55:20.819Z,75.32
2023-05-19T16:58:11.824Z,75.93
2023-05-19T17:01:00.675Z,76.93
2023-05-19T17:03:49.006Z,77.23
2023-05-19T17:06:37.649Z,77.74
2023-05-19T17:09:26.472Z,77.84
2023-05-19T17:12:15.964Z,77.96
2023-05-19T17:15:04.751Z,78.40
2023-05-19T17:17:53.798Z,79.18
2023-05-19T17:20:42.023Z,79.16
2023-05-19T17:23:30.769Z,78.77
2023-05-19T17:26:19.235Z,79.53
2023-05-19T17:29:07.419Z,80.27
2023-05-19T17:31:55.909Z,80.27
2023-05-19T17:34:44.176Z,80.57
2023-05-19T17:37:33.431Z,81.79
2023-05-19T17:40:21.752Z,82.15
2023-05-19T17:43:11.045Z,82.74
2023-05-19T17:46:01.030Z,83.47
2023-05-19T17:48:49.438Z,83.64
2023-05-19T17:51:39.592Z,84.19
2023-05-19T17:54:30.034Z,84.65
2023-05-19T17:57:19.128Z,84.76
2023-05-19T18:00:09.165Z,84.68
2023-05-19T18:02:57.741Z,84.88
2023-05-19T18:05:46.819Z,84.83
2023-05-19T18:08:38.226Z,84.83
2023-05-19T18:11:27.498Z,84.51
2023-05-19T18:14:16.550Z,84.81
2023-05-19T18:17:05.618Z,84.59
2023-05-19T18:19:54.802Z,84.99
2023-05-19T18:22:43.603Z,85.19
2023-05-19T18:25:31.599Z,85.33
2023-05-19T18:28:20.473Z,85.37
2023-05-19T18:31:17.551Z,85.46
2023-05-19T18:34:06.535Z,85.94
2023-05-19T18:36:54.998Z,85.95
2023-05-19T18:39:42.969Z,86.36
2023-05-19T18:42:31.019Z,87.67
2023-05-19T18:45:19.543Z,87.74
2023-05-19T18:48:08.885Z,87.84
2023-05-19T18:50:58.054Z,88.04
2023-05-19T18:53:50.152Z,88.65
2023-05-19T18:56:38.735Z,89.21
2023-05-19T18:59:27.000Z,89.22
2023-05-19T19:02:15.249Z,89.60
2023-05-19T19:05:04.267Z,90.16
2023-05-19T19:07:53.941Z,89.96
2023-05-19T19:10:42.648Z,89.88
2023-05-19T19:13:30.919Z,90.41
2023-05-19T19:16:19.444Z,90.57
2023-05-19T19:19:08.780Z,90.82
2023-05-19T19:21:58.306Z,91.25
2023-05-19T19:24:48.224Z,90.69
2023-05-19T19:27:37.786Z,91.13
2023-05-19T19:30:27.617Z,91.53
2023-05-19T19:33:16.032Z,91.30
2023-05-19T19:36:05.063Z,91.37
2023-05-19T19:38:53.826Z,91.84
2023-05-19T19:41:42.724Z,92.06
2023-05-19T19:44:33.423Z,92.34
2023-05-19T19:47:22.478Z,92.75
2023-05-19T19:50:12.797Z,92.89
2023-05-19T19:53:02.084Z,93.15
2023-05-19T19:56:02.705Z,93.33
2023-05-19T19:58:52.273Z,93.28
2023-05-19T20:01:40.631Z,93.85
2023-05-19T20:04:29.762Z,93.78
2023-05-19T20:07:21.092Z,94.18
2023-05-19T20:10:11.742Z,94.15
2023-05-19T20:13:01.374Z,94.17
2023-05-19T20:15:50.793Z,94.25
2023-05-19T20:18:40.904Z,94.16
2023-05-19T20:21:30.527Z,94.37
2023-05-19T20:24:18.958Z,94.23
2023-05-19T20:27:11.162Z,94.42
2023-05-19T20:29:59.982Z,94.44
2023-05-19T20:32:50.267Z,94.16
2023-05-19T20:35:41.061Z,94.38
2023-05-19T20:38:31.535Z,94.62
2023-05-19T20:41:21.324Z,94.59
2023-05-19T20:44:12.881Z,94.82
2023-05-19T20:47:01.401Z,94.83
2023-05-19T20:49:50.250Z,94.48
2023-05-19T20:52:40.202Z,94.24
2023-05-19T20:55:29.093Z,94.37
2023-05-19T20:58:17.219Z,94.14
2023-05-19T21:01:06.032Z,93.62
2023-05-19T21:03:54.607Z,93.29
2023-05-19T21:06:42.910Z,93.27
2023-05-19T21:09:31.001Z,93.26
2023-05-19T21:12:25.523Z,92.68
2023-05-19T21:15:15.823Z,92.55
2023-05-19T21:18:07.271Z,91.60
2023-05-19T21:20:56.854Z,91.25
2023-05-19T21:23:45.582Z,90.62
2023-05-19T21:26:33.774Z,90.23
2023-05-19T21:29:31.181Z,90.12
2023-05-19T21:32:29.745Z,89.88
2023-05-19T21:35:17.970Z,89.49
2023-05-19T21:38:15.688Z,89.33
2023-05-19T21:41:12.547Z,89.10
2023-05-19T21:44:01.520Z,88.61
2023-05-19T21:46:52.250Z,88.66
2023-05-19T21:49:41.085Z,88.43
2023-05-19T21:52:29.470Z,87.84
2023-05-19T21:55:18.581Z,87.63
2023-05-19T21:58:06.852Z,86.87
2023-05-19T22:00:55.024Z,85.69
2023-05-19T22:03:43.390Z,85.15
2023-05-19T22:06:31.759Z,84.69
2023-05-19T22:09:20.068Z,83.95
2023-05-19T22:12:09.062Z,84.12
2023-05-19T22:14:57.282Z,83.46
2023-05-19T22:17:45.538Z,82.67
2023-05-19T22:20:34.222Z,81.86
2023-05-19T22:23:23.020Z,80.62
2023-05-19T22:26:11.697Z,79.82
2023-05-19T22:29:01.184Z,79.93
2023-05-19T22:31:50.445Z,79.53
2023-05-19T22:34:39.332Z,80.03
2023-05-19T22:37:29.106Z,79.34
2023-05-19T22:40:18.017Z,78.74
2023-05-19T22:43:06.300Z,78.43
2023-05-19T22:45:56.380Z,77.74
2023-05-19T22:48:45.425Z,77.89
2023-05-19T22:51:33.810Z,77.57
2023-05-19T22:54:21.901Z,77.82
2023-05-19T22:57:11.585Z,78.04
2023-05-19T22:59:59.620Z,77.54
2023-05-19T23:02:47.829Z,77.81
2023-05-19T23:05:36.165Z,78.07
2023-05-19T23:08:24.424Z,77.45
2023-05-19T23:11:13.262Z,77.50
2023-05-19T23:14:02.059Z,77.20
2023-05-19T23:16:50.485Z,77.39
2023-05-19T23:19:39.166Z,77.55
2023-05-19T23:22:27.578Z,77.75
2023-05-19T23:25:15.668Z,78.03
2023-05-19T23:28:04.112Z,78.23
2023-05-19T23:30:54.432Z,77.62
2023-05-19T23:33:42.897Z,77.68
2023-05-19T23:36:31.793Z,77.62
2023-05-19T23:39:20.153Z,77.82
2023-05-19T23:42:08.322Z,78.41
2023-05-19T23:44:56.594Z,78.62
2023-05-19T23:47:44.815Z,78.63
2023-05-19T23:50:32.982Z,78.76
2023-05-19T23:53:21.408Z,78.74
2023-05-19T23:56:10.691Z,78.77
2023-05-19T23:58:58.854Z,79.06
